createdAt,value
2023-01-13T00:00:15.765Z,82.96
2023-01-13T00:02:42.447Z,83.64
2023-01-13T00:05:10.336Z,83.78
2023-01-13T00:07:38.420Z,83.75
2023-01-13T00:10:05.482Z,83.89
2023-01-13T00:12:32.051Z,84.55
2023-01-13T00:14:58.605Z,84.49
2023-01-13T00:17:25.172Z,85.04
2023-01-13T00:19:51.734Z,85.46
2023-01-13T00:22:18.334Z,85.64
2023-01-13T00:24:45.308Z,86.03
2023-01-13T00:27:11.841Z,86.31
2023-01-13T00:29:38.396Z,87.70
2023-01-13T00:32:04.947Z,87.77
2023-01-13T00:34:31.483Z,87.92
2023-01-13T00:36:58.217Z,87.98
2023-01-13T00:39:24.740Z,88.76
2023-01-13T00:42:09.950Z,90.34
2023-01-13T00:44:36.532Z,89.90
2023-01-13T00:47:03.333Z,91.21
2023-01-13T00:49:29.908Z,91.07
2023-01-13T00:51:56.452Z,91.87
2023-01-13T00:54:23.161Z,92.27
2023-01-13T00:56:49.754Z,92.04
2023-01-13T00:59:16.303Z,92.16
2023-01-13T01:01:43.189Z,91.93
2023-01-13T01:04:10.221Z,91.62
2023-01-13T01:06:36.821Z,91.85
2023-01-13T01:09:05.216Z,91.90
2023-01-13T01:11:32.961Z,91.74
2023-01-13T01:14:03.090Z,91.51
2023-01-13T01:16:31.056Z,91.11
2023-01-13T01:18:58.017Z,91.09
2023-01-13T01:21:25.790Z,91.03
2023-01-13T01:23:52.740Z,90.95
2023-01-13T01:26:24.519Z,90.72
2023-01-13T01:28:54.858Z,89.44
2023-01-13T01:31:27.067Z,89.48
2023-01-13T01:33:54.940Z,88.83
2023-01-13T01:36:23.627Z,87.93
2023-01-13T01:38:50.636Z,87.12
2023-01-13T01:41:19.973Z,87.99
2023-01-13T01:44:02.617Z,87.60
2023-01-13T01:46:42.850Z,86.89
2023-01-13T01:49:18.329Z,87.49
2023-01-13T01:52:10.514Z,87.36
2023-01-13T01:54:52.931Z,87.05
2023-01-13T01:57:26.659Z,86.66
2023-01-13T01:59:53.906Z,85.98
2023-01-13T02:02:20.882Z,86.16
2023-01-13T02:04:51.739Z,86.10
2023-01-13T02:07:22.941Z,85.78
2023-01-13T02:09:49.826Z,85.79
2023-01-13T02:12:32.643Z,86.21
2023-01-13T02:15:09.053Z,85.89
2023-01-13T02:18:12.821Z,86.06
2023-01-13T02:20:45.674Z,86.01
2023-01-13T02:24:11.622Z,84.95
2023-01-13T02:26:47.503Z,84.97
2023-01-13T02:29:56.799Z,85.27
2023-01-13T02:32:33.437Z,85.41
2023-01-13T02:35:12.100Z,85.01
2023-01-13T02:37:42.700Z,84.65
2023-01-13T02:40:18.094Z,84.17
2023-01-13T02:43:11.740Z,83.72
2023-01-13T02:45:46.727Z,83.80
2023-01-13T02:48:15.386Z,83.54
2023-01-13T02:50:50.892Z,83.61
2023-01-13T02:53:43.317Z,83.54
2023-01-13T02:56:10.751Z,83.67
2023-01-13T02:58:41.012Z,83.81
2023-01-13T03:01:07.990Z,83.58
2023-01-13T03:03:34.505Z,83.60
2023-01-13T03:06:41.648Z,83.68
2023-01-13T03:09:15.955Z,83.91
2023-01-13T03:12:13.923Z,84.18
2023-01-13T03:15:04.515Z,84.92
2023-01-13T03:17:44.370Z,85.43
2023-01-13T03:20:33.574Z,85.53
2023-01-13T03:23:13.292Z,85.81
2023-01-13T03:26:04.413Z,86.51
2023-01-13T03:28:38.447Z,86.36
2023-01-13T03:31:11.107Z,87.07
2023-01-13T03:34:00.251Z,87.32
2023-01-13T03:36:28.651Z,87.52
2023-01-13T03:39:00.684Z,87.74
2023-01-13T03:41:33.963Z,87.43
2023-01-13T03:44:22.772Z,86.94
2023-01-13T03:47:03.907Z,87.13
2023-01-13T03:49:45.935Z,86.97
2023-01-13T03:52:20.072Z,86.91
2023-01-13T03:54:54.529Z,86.29
2023-01-13T03:57:26.592Z,85.97
2023-01-13T03:59:56.015Z,86.37
2023-01-13T04:02:47.455Z,85.15
2023-01-13T04:05:14.872Z,85.53
2023-01-13T04:08:12.767Z,85.38
2023-01-13T04:10:52.439Z,84.99
2023-01-13T04:13:23.433Z,85.20
2023-01-13T04:15:50.114Z,85.68
2023-01-13T04:18:20.892Z,85.33
2023-01-13T04:20:50.082Z,85.76
2023-01-13T04:23:17.728Z,85.20
2023-01-13T04:25:46.016Z,85.52
2023-01-13T04:28:12.896Z,85.29
2023-01-13T04:30:40.298Z,85.40
2023-01-13T04:33:06.956Z,84.91
2023-01-13T04:35:34.797Z,84.65
2023-01-13T04:38:12.132Z,85.76
2023-01-13T04:40:39.617Z,85.32
2023-01-13T04:43:06.275Z,85.58
2023-01-13T04:45:32.970Z,85.95
2023-01-13T04:47:59.688Z,85.12
2023-01-13T04:50:26.604Z,85.40
2023-01-13T04:52:54.047Z,85.79
2023-01-13T04:55:22.775Z,86.14
2023-01-13T04:57:49.236Z,86.01
2023-01-13T05:00:18.175Z,86.54
2023-01-13T05:02:44.590Z,86.80
2023-01-13T05:05:11.057Z,87.04
2023-01-13T05:07:37.474Z,87.07
2023-01-13T05:10:04.119Z,86.90
2023-01-13T05:12:49.014Z,86.57
2023-01-13T05:15:34.341Z,86.53
2023-01-13T05:18:01.644Z,86.58
2023-01-13T05:20:28.124Z,86.63
2023-01-13T05:23:13.196Z,87.23
2023-01-13T05:25:44.026Z,87.58
2023-01-13T05:28:10.913Z,87.48
2023-01-13T05:30:42.320Z,87.33
2023-01-13T05:33:13.970Z,87.55
2023-01-13T05:35:43.099Z,87.44
2023-01-13T05:38:10.374Z,88.05
2023-01-13T05:40:59.327Z,87.83
2023-01-13T05:43:26.894Z,88.01
2023-01-13T05:46:08.765Z,88.28
2023-01-13T05:48:41.118Z,88.46
2023-01-13T05:51:10.028Z,88.36
2023-01-13T05:53:36.733Z,88.57
2023-01-13T05:56:07.200Z,88.57
2023-01-13T05:58:34.164Z,88.63
2023-01-13T06:01:08.955Z,88.69
2023-01-13T06:03:36.165Z,88.98
2023-01-13T06:06:03.946Z,88.88
2023-01-13T06:08:31.947Z,87.62
2023-01-13T06:10:58.351Z,87.44
2023-01-13T06:13:25.438Z,87.06
2023-01-13T06:15:52.124Z,86.61
2023-01-13T06:18:18.770Z,86.01
2023-01-13T06:20:47.023Z,86.23
2023-01-13T06:23:13.628Z,86.70
2023-01-13T06:25:47.521Z,86.91
2023-01-13T06:28:13.966Z,86.49
2023-01-13T06:30:47.847Z,86.64
2023-01-13T06:33:17.907Z,86.30
2023-01-13T06:35:49.824Z,86.74
2023-01-13T06:38:18.681Z,87.01
2023-01-13T06:40:45.441Z,86.64
2023-01-13T06:43:16.325Z,86.63
2023-01-13T06:45:52.320Z,86.64
2023-01-13T06:48:22.056Z,86.55
2023-01-13T06:50:48.596Z,86.54
2023-01-13T06:53:15.008Z,86.41
2023-01-13T06:55:41.603Z,86.56
2023-01-13T06:58:08.094Z,86.54
2023-01-13T07:00:37.583Z,86.04
2023-01-13T07:03:14.246Z,86.12
2023-01-13T07:05:42.164Z,85.79
2023-01-13T07:08:09.729Z,86.30
2023-01-13T07:10:37.053Z,86.34
2023-01-13T07:13:23.057Z,86.65
2023-01-13T07:15:56.890Z,86.31
2023-01-13T07:18:24.504Z,86.66
2023-01-13T07:21:19.747Z,86.72
2023-01-13T07:23:47.242Z,87.69
2023-01-13T07:26:14.884Z,87.54
2023-01-13T07:28:41.752Z,88.20
2023-01-13T07:31:20.997Z,87.28
2023-01-13T07:33:47.856Z,86.08
2023-01-13T07:36:15.152Z,86.26
2023-01-13T07:38:44.271Z,86.17
2023-01-13T07:41:36.196Z,85.90
2023-01-13T07:44:06.054Z,85.38
2023-01-13T07:46:33.527Z,84.96
2023-01-13T07:48:59.992Z,84.87
2023-01-13T07:51:29.463Z,85.04
2023-01-13T07:53:55.906Z,84.97
2023-01-13T07:56:22.735Z,85.29
2023-01-13T07:58:55.539Z,84.98
2023-01-13T08:01:22.318Z,84.01
2023-01-13T08:03:48.834Z,84.45
2023-01-13T08:06:15.257Z,84.17
2023-01-13T08:08:41.684Z,84.23
2023-01-13T08:11:08.824Z,84.55
2023-01-13T08:13:35.958Z,84.48
2023-01-13T08:16:05.932Z,84.35
2023-01-13T08:18:33.492Z,84.66
2023-01-13T08:21:14.465Z,84.12
2023-01-13T08:23:45.535Z,83.76
2023-01-13T08:26:14.832Z,84.52
2023-01-13T08:28:41.528Z,84.15
2023-01-13T08:31:16.506Z,83.99
2023-01-13T08:33:43.192Z,83.59
2023-01-13T08:36:12.192Z,84.33
2023-01-13T08:38:39.547Z,85.88
2023-01-13T08:41:11.378Z,85.41
2023-01-13T08:43:37.782Z,85.85
2023-01-13T08:46:04.846Z,85.95
2023-01-13T08:48:31.780Z,85.65
2023-01-13T08:51:04.893Z,85.91
2023-01-13T08:53:31.409Z,87.10
2023-01-13T08:55:57.859Z,87.37
2023-01-13T08:58:24.270Z,88.00
2023-01-13T09:00:50.690Z,89.46
2023-01-13T09:03:17.515Z,89.76
2023-01-13T09:05:44.952Z,90.79
2023-01-13T09:08:17.589Z,92.46
2023-01-13T09:10:44.057Z,93.50
2023-01-13T09:13:13.260Z,95.42
2023-01-13T09:15:41.774Z,98.08
2023-01-13T09:18:08.510Z,97.74
2023-01-13T09:20:35.207Z,99.25
2023-01-13T09:23:04.146Z,100.00
2023-01-13T09:25:31.137Z,100.00
2023-01-13T09:27:57.768Z,100.00
2023-01-13T09:30:25.087Z,100.00
2023-01-13T09:33:11.498Z,100.00
2023-01-13T09:35:37.861Z,100.00
2023-01-13T09:38:04.301Z,100.00
2023-01-13T09:40:30.719Z,100.00
2023-01-13T09:43:24.166Z,100.00
2023-01-13T09:45:59.286Z,100.00
2023-01-13T09:48:51.993Z,100.00
2023-01-13T09:51:38.992Z,100.00
2023-01-13T09:54:13.475Z,100.00
2023-01-13T09:56:39.913Z,100.00
2023-01-13T09:59:11.491Z,100.00
2023-01-13T10:02:22.732Z,100.00
2023-01-13T10:05:32.289Z,100.00
2023-01-13T10:08:05.219Z,100.00
2023-01-13T10:10:38.421Z,100.00
2023-01-13T10:13:19.910Z,100.00
2023-01-13T10:16:07.770Z,100.00
2023-01-13T10:18:53.074Z,100.00
2023-01-13T10:21:37.584Z,100.00
2023-01-13T10:24:11.507Z,100.00
2023-01-13T10:27:03.370Z,100.00
2023-01-13T10:29:31.285Z,100.00
2023-01-13T10:31:59.777Z,100.00
2023-01-13T10:34:27.577Z,100.00
2023-01-13T10:37:00.005Z,100.00
2023-01-13T10:39:27.373Z,100.00
2023-01-13T10:42:13.706Z,100.00
2023-01-13T10:44:50.274Z,100.00
2023-01-13T10:47:24.363Z,100.00
2023-01-13T10:50:09.682Z,100.00
2023-01-13T10:52:43.847Z,100.00
2023-01-13T10:55:30.593Z,100.00
2023-01-13T10:57:58.988Z,100.00
2023-01-13T11:00:32.477Z,100.00
2023-01-13T11:03:16.718Z,100.00
2023-01-13T11:05:58.398Z,100.00
2023-01-13T11:08:28.401Z,100.00
2023-01-13T11:10:57.224Z,100.00
2023-01-13T11:13:57.640Z,100.00
2023-01-13T11:16:25.900Z,100.00
2023-01-13T11:19:02.474Z,100.00
2023-01-13T11:21:36.564Z,100.00
2023-01-13T11:24:12.754Z,100.00
2023-01-13T11:26:51.335Z,100.00
2023-01-13T11:29:25.965Z,100.00
2023-01-13T11:31:55.581Z,100.00
2023-01-13T11:34:41.482Z,100.00
2023-01-13T11:37:21.206Z,99.67
2023-01-13T11:39:53.794Z,98.55
2023-01-13T11:42:36.719Z,96.37
2023-01-13T11:45:42.185Z,93.56
2023-01-13T11:48:14.716Z,93.18
2023-01-13T11:50:50.670Z,91.65
2023-01-13T11:53:38.251Z,90.38
2023-01-13T11:56:31.082Z,92.31
2023-01-13T11:59:32.829Z,90.13
2023-01-13T12:02:16.173Z,88.79
2023-01-13T12:04:57.862Z,89.74
2023-01-13T12:07:27.247Z,91.25
2023-01-13T12:10:05.013Z,91.35
2023-01-13T12:13:00.594Z,89.26
2023-01-13T12:16:05.368Z,86.96
2023-01-13T12:18:37.929Z,88.06
2023-01-13T12:21:28.743Z,87.43
2023-01-13T12:24:49.789Z,87.28
2023-01-13T12:27:59.366Z,88.11
2023-01-13T12:30:37.055Z,86.48
2023-01-13T12:33:21.467Z,86.83
2023-01-13T12:36:02.942Z,88.51
2023-01-13T12:38:41.668Z,87.30
2023-01-13T12:41:24.554Z,87.91
2023-01-13T12:44:11.703Z,89.28
2023-01-13T12:46:47.062Z,90.42
2023-01-13T12:49:30.357Z,88.30
2023-01-13T12:51:56.695Z,87.88
2023-01-13T12:54:41.385Z,88.91
2023-01-13T12:57:16.913Z,89.10
2023-01-13T12:59:51.687Z,88.49
2023-01-13T13:02:29.910Z,87.86
2023-01-13T13:04:59.790Z,87.86
2023-01-13T13:07:37.232Z,87.75
2023-01-13T13:10:30.042Z,88.66
2023-01-13T13:13:17.640Z,88.03
2023-01-13T13:15:46.571Z,88.60
2023-01-13T13:18:23.807Z,89.24
2023-01-13T13:21:03.976Z,90.04
2023-01-13T13:23:47.824Z,90.43
2023-01-13T13:26:26.276Z,89.84
2023-01-13T13:29:22.070Z,90.72
2023-01-13T13:32:12.507Z,91.33
2023-01-13T13:35:00.272Z,92.77
2023-01-13T13:37:58.848Z,93.11
2023-01-13T13:40:44.480Z,91.97
2023-01-13T13:43:32.499Z,89.85
2023-01-13T13:46:17.314Z,89.67
2023-01-13T13:48:52.594Z,88.94
2023-01-13T13:51:29.119Z,86.53
2023-01-13T13:53:56.047Z,86.11
2023-01-13T13:56:25.977Z,85.63
2023-01-13T13:58:53.313Z,86.23
2023-01-13T14:01:34.726Z,85.19
2023-01-13T14:04:20.511Z,84.31
2023-01-13T14:06:55.421Z,80.80
2023-01-13T14:09:23.395Z,80.68
2023-01-13T14:12:02.240Z,78.30
2023-01-13T14:14:29.641Z,76.52
2023-01-13T14:16:56.417Z,77.43
2023-01-13T14:19:34.168Z,76.90
2023-01-13T14:22:02.636Z,76.32
2023-01-13T14:24:30.128Z,75.98
2023-01-13T14:27:30.096Z,77.53
2023-01-13T14:30:00.029Z,77.95
2023-01-13T14:32:33.323Z,78.77
2023-01-13T14:34:59.719Z,79.11
2023-01-13T14:37:38.651Z,79.82
2023-01-13T14:40:05.477Z,79.95
2023-01-13T14:42:35.350Z,81.13
2023-01-13T14:45:03.107Z,82.41
2023-01-13T14:47:33.800Z,82.96
2023-01-13T14:50:12.929Z,83.21
2023-01-13T14:52:50.577Z,81.70
2023-01-13T14:55:36.308Z,81.56
2023-01-13T14:58:21.635Z,82.77
2023-01-13T15:00:51.899Z,82.89
2023-01-13T15:03:21.527Z,82.40
2023-01-13T15:05:52.798Z,80.69
2023-01-13T15:08:28.085Z,80.15
2023-01-13T15:11:01.329Z,79.62
2023-01-13T15:13:51.163Z,78.78
2023-01-13T15:16:25.359Z,79.03
2023-01-13T15:18:52.856Z,79.48
2023-01-13T15:21:19.522Z,79.58
2023-01-13T15:23:47.335Z,79.32
2023-01-13T15:26:25.375Z,80.40
2023-01-13T15:28:53.041Z,80.00
2023-01-13T15:31:19.755Z,79.12
2023-01-13T15:33:46.303Z,79.89
2023-01-13T15:36:28.586Z,80.16
2023-01-13T15:38:55.891Z,80.94
2023-01-13T15:41:41.391Z,81.59
2023-01-13T15:44:29.683Z,82.22
2023-01-13T15:46:56.637Z,83.29
2023-01-13T15:49:35.100Z,83.36
2023-01-13T15:52:12.018Z,83.47
2023-01-13T15:54:38.493Z,84.48
2023-01-13T15:57:04.980Z,84.47
2023-01-13T15:59:31.435Z,84.56
2023-01-13T16:02:00.916Z,85.11
2023-01-13T16:04:27.339Z,86.02
2023-01-13T16:06:53.838Z,86.40
2023-01-13T16:09:20.258Z,86.51
2023-01-13T16:11:46.667Z,86.26
2023-01-13T16:14:13.104Z,86.36
2023-01-13T16:16:39.660Z,86.21
2023-01-13T16:19:06.123Z,87.44
2023-01-13T16:21:32.542Z,87.88
2023-01-13T16:24:15.566Z,87.99
2023-01-13T16:26:41.952Z,88.66
2023-01-13T16:29:13.915Z,89.29
2023-01-13T16:31:40.375Z,88.85
2023-01-13T16:34:06.930Z,88.92
2023-01-13T16:36:37.166Z,89.07
2023-01-13T16:39:05.133Z,89.43
2023-01-13T16:41:33.361Z,89.21
2023-01-13T16:44:05.841Z,88.31
2023-01-13T16:46:32.260Z,86.10
2023-01-13T16:51:46.748Z,86.60
2023-01-13T16:54:13.391Z,85.99
2023-01-13T16:56:39.798Z,85.71
2023-01-13T16:59:09.099Z,86.10
2023-01-13T17:01:38.383Z,86.13
2023-01-13T17:04:05.819Z,85.96
2023-01-13T17:06:37.279Z,86.56
2023-01-13T17:09:14.621Z,86.34
2023-01-13T17:11:41.058Z,86.65
2023-01-13T17:14:19.282Z,86.65
2023-01-13T17:16:46.901Z,86.74
2023-01-13T17:19:13.916Z,86.92
2023-01-13T17:21:40.653Z,87.52
2023-01-13T17:24:07.971Z,87.63
2023-01-13T17:26:44.087Z,87.88
2023-01-13T17:29:23.077Z,88.03
2023-01-13T17:31:51.075Z,88.23
2023-01-13T17:34:18.716Z,87.96
2023-01-13T17:36:45.112Z,88.17
2023-01-13T17:39:16.828Z,88.60
2023-01-13T17:41:43.253Z,88.79
2023-01-13T17:44:13.383Z,88.55
2023-01-13T17:46:40.800Z,88.61
2023-01-13T17:49:07.226Z,88.61
2023-01-13T17:51:33.715Z,88.87
2023-01-13T17:54:00.114Z,89.91
2023-01-13T17:56:26.623Z,89.61
2023-01-13T17:58:53.075Z,89.69
2023-01-13T18:01:21.906Z,90.00
2023-01-13T18:03:49.691Z,90.01
2023-01-13T18:06:19.633Z,89.96
2023-01-13T18:08:46.797Z,90.07
2023-01-13T18:11:15.449Z,90.81
2023-01-13T18:13:43.207Z,90.80
2023-01-13T18:16:14.166Z,90.85
2023-01-13T18:18:42.916Z,90.92
2023-01-13T18:21:44.071Z,91.35
2023-01-13T18:24:31.159Z,91.30
2023-01-13T18:27:16.390Z,91.05
2023-01-13T18:29:43.481Z,91.16
2023-01-13T18:32:09.899Z,90.97
2023-01-13T18:34:36.964Z,90.79
2023-01-13T18:37:03.663Z,91.15
2023-01-13T18:39:30.099Z,91.25
2023-01-13T18:42:15.162Z,90.96
2023-01-13T18:44:41.637Z,90.65
2023-01-13T18:47:08.659Z,90.49
2023-01-13T18:49:35.299Z,90.40
2023-01-13T18:52:01.747Z,90.80
2023-01-13T18:54:28.151Z,90.45
2023-01-13T18:56:54.580Z,90.53
2023-01-13T18:59:21.019Z,90.73
2023-01-13T19:01:47.631Z,89.40
2023-01-13T19:04:16.037Z,88.58
2023-01-13T19:06:51.722Z,88.50
2023-01-13T19:09:22.655Z,87.73
2023-01-13T19:11:50.432Z,86.90
2023-01-13T19:14:34.064Z,87.12
2023-01-13T19:17:02.362Z,86.83
2023-01-13T19:19:29.283Z,85.65
2023-01-13T19:21:56.399Z,84.86
2023-01-13T19:24:25.947Z,85.04
2023-01-13T19:26:54.377Z,84.35
2023-01-13T19:29:20.851Z,84.61
2023-01-13T19:31:47.281Z,84.82
2023-01-13T19:34:14.390Z,84.50
2023-01-13T19:36:41.920Z,84.26
2023-01-13T19:39:08.626Z,84.21
2023-01-13T19:41:54.123Z,84.26
2023-01-13T19:44:39.429Z,84.29
2023-01-13T19:47:06.977Z,84.12
2023-01-13T19:49:33.563Z,84.45
2023-01-13T19:51:59.963Z,84.05
2023-01-13T19:54:26.369Z,84.39
2023-01-13T19:56:52.756Z,84.36
2023-01-13T19:59:22.135Z,84.86
2023-01-13T20:01:48.909Z,84.88
2023-01-13T20:04:17.859Z,84.78
2023-01-13T20:06:44.297Z,84.54
2023-01-13T20:09:11.503Z,84.32
2023-01-13T20:11:38.147Z,84.59
2023-01-13T20:14:04.628Z,85.20
2023-01-13T20:16:33.044Z,84.95
2023-01-13T20:18:59.817Z,85.44
2023-01-13T20:21:26.464Z,85.51
2023-01-13T20:23:53.432Z,85.60
2023-01-13T20:26:20.832Z,85.45
2023-01-13T20:28:47.717Z,85.94
2023-01-13T20:31:15.561Z,85.96
2023-01-13T20:33:42.608Z,85.89
2023-01-13T20:36:25.783Z,86.08
2023-01-13T20:38:56.263Z,85.48
2023-01-13T20:41:41.016Z,84.87
2023-01-13T20:44:11.236Z,84.44
2023-01-13T20:46:39.209Z,84.72
2023-01-13T20:49:05.843Z,84.26
2023-01-13T20:51:32.273Z,84.23
2023-01-13T20:53:58.661Z,84.00
2023-01-13T20:56:25.085Z,83.69
2023-01-13T20:58:51.481Z,83.76
2023-01-13T21:01:18.068Z,84.16
2023-01-13T21:03:44.545Z,83.96
2023-01-13T21:06:12.027Z,83.73
2023-01-13T21:08:38.522Z,83.73
2023-01-13T21:11:06.081Z,84.04
2023-01-13T21:13:51.185Z,84.38
2023-01-13T21:16:17.682Z,84.26
2023-01-13T21:19:02.723Z,84.22
2023-01-13T21:21:29.155Z,84.27
2023-01-13T21:23:55.555Z,84.88
2023-01-13T21:26:22.488Z,84.71
2023-01-13T21:28:50.101Z,85.03
2023-01-13T21:31:17.276Z,85.02
2023-01-13T21:33:44.867Z,85.03
2023-01-13T21:36:12.452Z,85.23
2023-01-13T21:38:39.215Z,84.55
2023-01-13T21:41:07.612Z,85.33
2023-01-13T21:43:54.140Z,84.71
2023-01-13T21:46:40.510Z,84.92
2023-01-13T21:49:07.125Z,85.01
2023-01-13T21:51:34.856Z,84.75
2023-01-13T21:54:01.300Z,84.85
2023-01-13T21:56:27.774Z,83.88
2023-01-13T21:58:56.469Z,84.72
2023-01-13T22:01:23.325Z,84.45
2023-01-13T22:04:08.517Z,84.77
2023-01-13T22:06:35.077Z,84.91
2023-01-13T22:09:01.603Z,83.55
2023-01-13T22:11:28.964Z,83.73
2023-01-13T22:14:08.987Z,83.86
2023-01-13T22:16:49.441Z,84.31
2023-01-13T22:19:18.316Z,84.16
2023-01-13T22:21:44.806Z,84.02
2023-01-13T22:24:11.947Z,83.88
2023-01-13T22:26:38.912Z,83.66
2023-01-13T22:29:05.683Z,84.22
2023-01-13T22:31:32.586Z,83.96
2023-01-13T22:33:59.086Z,84.40
2023-01-13T22:36:26.175Z,84.13
2023-01-13T22:38:56.502Z,83.89
2023-01-13T22:41:23.486Z,84.47
2023-01-13T22:43:49.938Z,84.64
2023-01-13T22:46:17.293Z,85.12
2023-01-13T22:48:44.234Z,85.43
2023-01-13T22:51:13.646Z,85.79
2023-01-13T22:53:40.838Z,85.50
2023-01-13T22:56:08.330Z,85.92
2023-01-13T22:58:34.750Z,85.68
2023-01-13T23:01:12.933Z,85.24
2023-01-13T23:03:39.520Z,85.35
2023-01-13T23:06:06.634Z,85.65
2023-01-13T23:08:34.731Z,85.75
2023-01-13T23:11:07.314Z,85.31
2023-01-13T23:13:34.875Z,84.97
2023-01-13T23:16:09.739Z,84.95
2023-01-13T23:18:36.425Z,84.91
2023-01-13T23:21:10.108Z,86.31
2023-01-13T23:23:37.369Z,86.55
2023-01-13T23:26:05.498Z,87.79
2023-01-13T23:28:33.161Z,88.16
2023-01-13T23:30:59.715Z,88.49
2023-01-13T23:33:26.708Z,88.83
2023-01-13T23:36:02.170Z,89.09
2023-01-13T23:38:29.273Z,88.85
2023-01-13T23:40:56.185Z,88.54
2023-01-13T23:43:23.221Z,88.63
2023-01-13T23:45:50.209Z,88.94
2023-01-13T23:48:18.603Z,88.77
2023-01-13T23:50:55.789Z,89.32
2023-01-13T23:53:22.172Z,89.53
2023-01-13T23:55:48.890Z,89.91
2023-01-13T23:58:15.632Z,89.16
